sensor_id;sensor_type;location;lat;lon;timestamp;P1;durP1;ratioP1;P2;durP2;ratioP2
73893;SDS011;62699;50.534;12.784;2023-06-24T00:01:34;11.63;;;6.70;;
73893;SDS011;62699;50.534;12.784;2023-06-24T00:06:34;9.85;;;6.43;;
73893;SDS011;62699;50.534;12.784;2023-06-24T00:11:36;11.68;;;7.07;;
73893;SDS011;62699;50.534;12.784;2023-06-24T00:16:37;12.48;;;7.25;;
73893;SDS011;62699;50.534;12.784;2023-06-24T00:21:37;10.98;;;6.57;;
73893;SDS011;62699;50.534;12.784;2023-06-24T00:26:37;10.32;;;6.55;;
73893;SDS011;62699;50.534;12.784;2023-06-24T00:31:38;10.48;;;6.85;;
73893;SDS011;62699;50.534;12.784;2023-06-24T00:36:38;10.38;;;7.20;;
73893;SDS011;62699;50.534;12.784;2023-06-24T00:41:38;11.20;;;6.70;;
73893;SDS011;62699;50.534;12.784;2023-06-24T00:46:39;11.23;;;6.73;;
73893;SDS011;62699;50.534;12.784;2023-06-24T00:51:39;11.13;;;6.93;;
73893;SDS011;62699;50.534;12.784;2023-06-24T00:56:40;11.02;;;6.55;;
73893;SDS011;62699;50.534;12.784;2023-06-24T01:01:43;12.27;;;7.70;;
73893;SDS011;62699;50.534;12.784;2023-06-24T01:06:46;12.10;;;7.82;;
73893;SDS011;62699;50.534;12.784;2023-06-24T01:11:48;15.40;;;8.27;;
73893;SDS011;62699;50.534;12.784;2023-06-24T01:16:52;12.77;;;7.68;;
73893;SDS011;62699;50.534;12.784;2023-06-24T01:33:03;14.43;;;9.23;;
73893;SDS011;62699;50.534;12.784;2023-06-24T01:38:08;14.90;;;8.85;;
73893;SDS011;62699;50.534;12.784;2023-06-24T01:43:14;14.43;;;9.45;;
73893;SDS011;62699;50.534;12.784;2023-06-24T01:48:18;14.75;;;9.23;;
73893;SDS011;62699;50.534;12.784;2023-06-24T01:53:23;12.38;;;8.70;;
73893;SDS011;62699;50.534;12.784;2023-06-24T01:58:24;14.02;;;8.95;;
73893;SDS011;62699;50.534;12.784;2023-06-24T02:03:24;12.73;;;8.27;;
73893;SDS011;62699;50.534;12.784;2023-06-24T02:08:29;14.25;;;8.95;;
73893;SDS011;62699;50.534;12.784;2023-06-24T02:13:31;13.75;;;8.40;;
73893;SDS011;62699;50.534;12.784;2023-06-24T02:18:36;13.20;;;8.75;;
73893;SDS011;62699;50.534;12.784;2023-06-24T02:23:43;15.00;;;9.73;;
73893;SDS011;62699;50.534;12.784;2023-06-24T02:28:44;14.27;;;9.55;;
73893;SDS011;62699;50.534;12.784;2023-06-24T02:33:46;13.80;;;8.65;;
73893;SDS011;62699;50.534;12.784;2023-06-24T02:38:46;16.67;;;9.50;;
73893;SDS011;62699;50.534;12.784;2023-06-24T02:43:46;14.07;;;9.02;;
73893;SDS011;62699;50.534;12.784;2023-06-24T02:48:47;13.02;;;8.60;;
73893;SDS011;62699;50.534;12.784;2023-06-24T02:53:48;13.80;;;8.73;;
73893;SDS011;62699;50.534;12.784;2023-06-24T02:58:49;14.88;;;9.73;;
73893;SDS011;62699;50.534;12.784;2023-06-24T03:03:55;16.17;;;9.07;;
73893;SDS011;62699;50.534;12.784;2023-06-24T03:08:57;14.20;;;8.45;;
73893;SDS011;62699;50.534;12.784;2023-06-24T03:13:59;12.55;;;8.43;;
73893;SDS011;62699;50.534;12.784;2023-06-24T03:19:00;16.88;;;9.02;;
73893;SDS011;62699;50.534;12.784;2023-06-24T03:24:02;13.80;;;8.50;;
73893;SDS011;62699;50.534;12.784;2023-06-24T03:29:03;12.88;;;8.68;;
73893;SDS011;62699;50.534;12.784;2023-06-24T03:34:03;13.13;;;9.32;;
73893;SDS011;62699;50.534;12.784;2023-06-24T03:39:05;14.50;;;9.38;;
73893;SDS011;62699;50.534;12.784;2023-06-24T03:44:06;15.55;;;9.90;;
73893;SDS011;62699;50.534;12.784;2023-06-24T03:49:07;12.98;;;8.38;;
73893;SDS011;62699;50.534;12.784;2023-06-24T03:54:07;17.20;;;10.35;;
73893;SDS011;62699;50.534;12.784;2023-06-24T03:59:08;16.27;;;10.07;;
73893;SDS011;62699;50.534;12.784;2023-06-24T04:04:08;14.13;;;8.70;;
73893;SDS011;62699;50.534;12.784;2023-06-24T04:09:09;16.75;;;9.95;;
73893;SDS011;62699;50.534;12.784;2023-06-24T04:14:11;15.02;;;9.90;;
73893;SDS011;62699;50.534;12.784;2023-06-24T04:19:12;13.68;;;9.32;;
73893;SDS011;62699;50.534;12.784;2023-06-24T04:24:12;14.15;;;9.73;;
73893;SDS011;62699;50.534;12.784;2023-06-24T04:29:13;12.73;;;8.50;;
73893;SDS011;62699;50.534;12.784;2023-06-24T04:34:13;14.15;;;9.57;;
73893;SDS011;62699;50.534;12.784;2023-06-24T04:39:13;15.07;;;10.60;;
73893;SDS011;62699;50.534;12.784;2023-06-24T04:44:14;17.40;;;10.60;;
73893;SDS011;62699;50.534;12.784;2023-06-24T04:49:14;15.32;;;9.52;;
73893;SDS011;62699;50.534;12.784;2023-06-24T04:54:14;17.13;;;10.88;;
73893;SDS011;62699;50.534;12.784;2023-06-24T04:59:14;16.10;;;10.55;;
73893;SDS011;62699;50.534;12.784;2023-06-24T05:04:15;16.42;;;11.48;;
73893;SDS011;62699;50.534;12.784;2023-06-24T05:09:15;17.58;;;12.23;;
73893;SDS011;62699;50.534;12.784;2023-06-24T05:14:15;16.65;;;11.85;;
73893;SDS011;62699;50.534;12.784;2023-06-24T05:19:16;19.40;;;13.68;;
73893;SDS011;62699;50.534;12.784;2023-06-24T05:24:16;16.90;;;11.45;;
73893;SDS011;62699;50.534;12.784;2023-06-24T05:29:17;16.25;;;11.15;;
73893;SDS011;62699;50.534;12.784;2023-06-24T05:34:18;15.73;;;11.35;;
73893;SDS011;62699;50.534;12.784;2023-06-24T05:39:18;17.45;;;12.32;;
73893;SDS011;62699;50.534;12.784;2023-06-24T05:44:20;17.80;;;12.25;;
73893;SDS011;62699;50.534;12.784;2023-06-24T05:49:20;16.98;;;12.25;;
73893;SDS011;62699;50.534;12.784;2023-06-24T05:54:20;17.67;;;12.30;;
73893;SDS011;62699;50.534;12.784;2023-06-24T05:59:22;15.20;;;11.63;;
73893;SDS011;62699;50.534;12.784;2023-06-24T06:04:22;18.15;;;13.18;;
73893;SDS011;62699;50.534;12.784;2023-06-24T06:09:22;19.05;;;13.05;;
73893;SDS011;62699;50.534;12.784;2023-06-24T06:14:23;19.23;;;13.47;;
73893;SDS011;62699;50.534;12.784;2023-06-24T06:19:24;18.55;;;12.80;;
73893;SDS011;62699;50.534;12.784;2023-06-24T06:24:24;17.13;;;12.65;;
73893;SDS011;62699;50.534;12.784;2023-06-24T06:29:24;15.95;;;11.57;;
73893;SDS011;62699;50.534;12.784;2023-06-24T06:34:27;17.15;;;12.65;;
73893;SDS011;62699;50.534;12.784;2023-06-24T06:39:27;18.73;;;13.45;;
73893;SDS011;62699;50.534;12.784;2023-06-24T06:44:27;18.50;;;11.88;;
73893;SDS011;62699;50.534;12.784;2023-06-24T06:49:29;13.63;;;10.23;;
73893;SDS011;62699;50.534;12.784;2023-06-24T06:54:31;13.77;;;10.38;;
73893;SDS011;62699;50.534;12.784;2023-06-24T06:59:32;12.53;;;9.80;;
73893;SDS011;62699;50.534;12.784;2023-06-24T07:04:32;14.25;;;9.88;;
73893;SDS011;62699;50.534;12.784;2023-06-24T07:09:32;11.80;;;8.45;;
73893;SDS011;62699;50.534;12.784;2023-06-24T07:14:33;11.77;;;9.27;;
73893;SDS011;62699;50.534;12.784;2023-06-24T07:19:33;13.15;;;9.70;;
73893;SDS011;62699;50.534;12.784;2023-06-24T07:24:34;13.65;;;9.95;;
73893;SDS011;62699;50.534;12.784;2023-06-24T07:29:34;12.63;;;9.10;;
73893;SDS011;62699;50.534;12.784;2023-06-24T07:34:36;14.35;;;9.88;;
73893;SDS011;62699;50.534;12.784;2023-06-24T07:39:37;12.50;;;9.60;;
73893;SDS011;62699;50.534;12.784;2023-06-24T07:44:37;13.15;;;9.48;;
73893;SDS011;62699;50.534;12.784;2023-06-24T07:49:41;12.95;;;9.57;;
73893;SDS011;62699;50.534;12.784;2023-06-24T07:54:43;12.73;;;10.23;;
73893;SDS011;62699;50.534;12.784;2023-06-24T07:59:44;14.05;;;9.90;;
73893;SDS011;62699;50.534;12.784;2023-06-24T08:04:45;14.38;;;10.20;;
73893;SDS011;62699;50.534;12.784;2023-06-24T08:09:46;13.23;;;8.60;;
73893;SDS011;62699;50.534;12.784;2023-06-24T08:14:46;11.55;;;8.73;;
73893;SDS011;62699;50.534;12.784;2023-06-24T08:19:47;14.80;;;8.93;;
73893;SDS011;62699;50.534;12.784;2023-06-24T08:24:47;13.02;;;8.77;;
73893;SDS011;62699;50.534;12.784;2023-06-24T08:29:47;13.30;;;9.45;;
73893;SDS011;62699;50.534;12.784;2023-06-24T08:34:50;14.25;;;9.55;;
73893;SDS011;62699;50.534;12.784;2023-06-24T08:45:52;14.35;;;8.23;;
73893;SDS011;62699;50.534;12.784;2023-06-24T08:51:18;11.90;;;8.75;;
73893;SDS011;62699;50.534;12.784;2023-06-24T08:56:51;11.90;;;7.88;;
73893;SDS011;62699;50.534;12.784;2023-06-24T09:01:58;10.85;;;5.88;;
73893;SDS011;62699;50.534;12.784;2023-06-24T09:07:55;10.80;;;6.65;;
73893;SDS011;62699;50.534;12.784;2023-06-24T09:13:03;11.57;;;5.35;;
73893;SDS011;62699;50.534;12.784;2023-06-24T09:18:14;10.07;;;4.78;;
73893;SDS011;62699;50.534;12.784;2023-06-24T09:23:25;9.45;;;4.47;;
73893;SDS011;62699;50.534;12.784;2023-06-24T09:28:57;9.27;;;4.63;;
73893;SDS011;62699;50.534;12.784;2023-06-24T09:39:41;7.20;;;4.25;;
73893;SDS011;62699;50.534;12.784;2023-06-24T09:44:43;8.20;;;4.07;;
73893;SDS011;62699;50.534;12.784;2023-06-24T09:50:34;8.80;;;4.30;;
73893;SDS011;62699;50.534;12.784;2023-06-24T09:55:34;9.18;;;4.38;;
73893;SDS011;62699;50.534;12.784;2023-06-24T10:00:43;9.70;;;4.65;;
73893;SDS011;62699;50.534;12.784;2023-06-24T10:05:44;11.50;;;4.15;;
73893;SDS011;62699;50.534;12.784;2023-06-24T10:10:56;8.55;;;4.28;;
73893;SDS011;62699;50.534;12.784;2023-06-24T10:15:57;7.63;;;4.20;;
73893;SDS011;62699;50.534;12.784;2023-06-24T10:20:58;13.25;;;4.57;;
73893;SDS011;62699;50.534;12.784;2023-06-24T10:25:58;8.73;;;4.65;;
73893;SDS011;62699;50.534;12.784;2023-06-24T10:30:59;9.60;;;4.73;;
73893;SDS011;62699;50.534;12.784;2023-06-24T10:36:00;8.52;;;4.45;;
73893;SDS011;62699;50.534;12.784;2023-06-24T10:41:06;8.15;;;4.22;;
73893;SDS011;62699;50.534;12.784;2023-06-24T10:46:16;7.95;;;4.32;;
73893;SDS011;62699;50.534;12.784;2023-06-24T10:51:17;10.02;;;4.55;;
73893;SDS011;62699;50.534;12.784;2023-06-24T10:56:17;7.83;;;4.33;;
73893;SDS011;62699;50.534;12.784;2023-06-24T11:01:18;10.52;;;4.70;;
73893;SDS011;62699;50.534;12.784;2023-06-24T11:06:20;8.90;;;4.53;;
73893;SDS011;62699;50.534;12.784;2023-06-24T11:11:20;7.85;;;4.80;;
73893;SDS011;62699;50.534;12.784;2023-06-24T11:16:24;7.65;;;4.53;;
73893;SDS011;62699;50.534;12.784;2023-06-24T11:21:29;8.05;;;4.60;;
73893;SDS011;62699;50.534;12.784;2023-06-24T11:26:36;8.90;;;4.90;;
73893;SDS011;62699;50.534;12.784;2023-06-24T11:31:39;7.20;;;4.43;;
73893;SDS011;62699;50.534;12.784;2023-06-24T11:36:40;7.47;;;4.65;;
73893;SDS011;62699;50.534;12.784;2023-06-24T11:41:41;7.57;;;4.53;;
73893;SDS011;62699;50.534;12.784;2023-06-24T11:46:44;7.93;;;4.85;;
73893;SDS011;62699;50.534;12.784;2023-06-24T11:51:47;9.07;;;5.28;;
73893;SDS011;62699;50.534;12.784;2023-06-24T11:56:52;9.82;;;5.32;;
73893;SDS011;62699;50.534;12.784;2023-06-24T12:01:53;8.48;;;4.93;;
73893;SDS011;62699;50.534;12.784;2023-06-24T12:06:54;11.02;;;4.95;;
73893;SDS011;62699;50.534;12.784;2023-06-24T12:11:54;12.10;;;4.93;;
73893;SDS011;62699;50.534;12.784;2023-06-24T12:16:55;8.07;;;5.30;;
73893;SDS011;62699;50.534;12.784;2023-06-24T12:21:55;8.88;;;5.20;;
73893;SDS011;62699;50.534;12.784;2023-06-24T12:26:57;7.80;;;4.15;;
73893;SDS011;62699;50.534;12.784;2023-06-24T12:32:03;7.07;;;4.10;;
73893;SDS011;62699;50.534;12.784;2023-06-24T12:37:04;8.73;;;4.05;;
73893;SDS011;62699;50.534;12.784;2023-06-24T12:42:05;8.82;;;4.35;;
73893;SDS011;62699;50.534;12.784;2023-06-24T12:47:07;7.07;;;3.80;;
73893;SDS011;62699;50.534;12.784;2023-06-24T12:52:08;7.85;;;4.22;;
73893;SDS011;62699;50.534;12.784;2023-06-24T12:57:08;7.03;;;3.92;;
73893;SDS011;62699;50.534;12.784;2023-06-24T13:02:09;7.88;;;4.50;;
73893;SDS011;62699;50.534;12.784;2023-06-24T13:07:09;10.55;;;4.60;;
73893;SDS011;62699;50.534;12.784;2023-06-24T13:12:09;8.80;;;4.45;;
73893;SDS011;62699;50.534;12.784;2023-06-24T13:17:10;7.68;;;4.35;;
73893;SDS011;62699;50.534;12.784;2023-06-24T13:22:10;6.30;;;3.83;;
73893;SDS011;62699;50.534;12.784;2023-06-24T13:27:10;6.37;;;4.17;;
73893;SDS011;62699;50.534;12.784;2023-06-24T13:32:11;7.80;;;3.97;;
73893;SDS011;62699;50.534;12.784;2023-06-24T13:37:11;8.20;;;4.20;;
73893;SDS011;62699;50.534;12.784;2023-06-24T13:42:11;7.33;;;4.37;;
73893;SDS011;62699;50.534;12.784;2023-06-24T13:47:13;8.90;;;4.22;;
73893;SDS011;62699;50.534;12.784;2023-06-24T13:52:13;7.87;;;4.17;;
73893;SDS011;62699;50.534;12.784;2023-06-24T13:57:14;6.82;;;4.07;;
73893;SDS011;62699;50.534;12.784;2023-06-24T14:02:15;8.38;;;4.18;;
73893;SDS011;62699;50.534;12.784;2023-06-24T14:07:16;7.55;;;4.25;;
73893;SDS011;62699;50.534;12.784;2023-06-24T14:12:16;7.20;;;3.92;;
73893;SDS011;62699;50.534;12.784;2023-06-24T14:17:17;6.85;;;4.10;;
73893;SDS011;62699;50.534;12.784;2023-06-24T14:22:17;8.82;;;4.57;;
73893;SDS011;62699;50.534;12.784;2023-06-24T14:27:17;7.82;;;4.20;;
73893;SDS011;62699;50.534;12.784;2023-06-24T14:32:18;7.00;;;4.03;;
73893;SDS011;62699;50.534;12.784;2023-06-24T14:37:18;8.13;;;3.75;;
73893;SDS011;62699;50.534;12.784;2023-06-24T14:42:19;7.28;;;4.05;;
73893;SDS011;62699;50.534;12.784;2023-06-24T14:47:19;7.47;;;4.07;;
73893;SDS011;62699;50.534;12.784;2023-06-24T14:52:20;6.88;;;3.45;;
73893;SDS011;62699;50.534;12.784;2023-06-24T14:57:20;7.18;;;3.33;;
73893;SDS011;62699;50.534;12.784;2023-06-24T15:02:23;7.50;;;3.70;;
73893;SDS011;62699;50.534;12.784;2023-06-24T15:07:25;7.25;;;3.90;;
73893;SDS011;62699;50.534;12.784;2023-06-24T15:12:25;6.03;;;3.88;;
73893;SDS011;62699;50.534;12.784;2023-06-24T15:17:26;5.80;;;3.40;;
73893;SDS011;62699;50.534;12.784;2023-06-24T15:22:26;7.43;;;3.45;;
73893;SDS011;62699;50.534;12.784;2023-06-24T15:27:26;5.65;;;3.60;;
73893;SDS011;62699;50.534;12.784;2023-06-24T15:32:26;7.63;;;3.72;;
73893;SDS011;62699;50.534;12.784;2023-06-24T15:37:27;7.70;;;3.90;;
73893;SDS011;62699;50.534;12.784;2023-06-24T15:42:29;6.82;;;3.45;;
73893;SDS011;62699;50.534;12.784;2023-06-24T15:47:29;6.65;;;3.30;;
73893;SDS011;62699;50.534;12.784;2023-06-24T15:52:30;6.03;;;3.60;;
73893;SDS011;62699;50.534;12.784;2023-06-24T15:57:30;6.97;;;3.38;;
73893;SDS011;62699;50.534;12.784;2023-06-24T16:02:31;7.25;;;3.20;;
73893;SDS011;62699;50.534;12.784;2023-06-24T16:07:31;5.95;;;3.63;;
73893;SDS011;62699;50.534;12.784;2023-06-24T16:12:32;7.95;;;4.15;;
73893;SDS011;62699;50.534;12.784;2023-06-24T16:17:32;8.32;;;3.80;;
73893;SDS011;62699;50.534;12.784;2023-06-24T16:22:33;7.70;;;3.63;;
73893;SDS011;62699;50.534;12.784;2023-06-24T16:27:34;7.03;;;3.95;;
73893;SDS011;62699;50.534;12.784;2023-06-24T16:32:35;7.45;;;4.13;;
73893;SDS011;62699;50.534;12.784;2023-06-24T16:37:36;8.10;;;4.10;;
73893;SDS011;62699;50.534;12.784;2023-06-24T16:42:37;6.47;;;3.83;;
73893;SDS011;62699;50.534;12.784;2023-06-24T16:47:39;7.13;;;4.00;;
73893;SDS011;62699;50.534;12.784;2023-06-24T16:52:40;9.17;;;4.07;;
73893;SDS011;62699;50.534;12.784;2023-06-24T16:57:40;10.77;;;4.93;;
73893;SDS011;62699;50.534;12.784;2023-06-24T17:02:43;6.95;;;3.88;;
73893;SDS011;62699;50.534;12.784;2023-06-24T17:07:44;6.93;;;4.10;;
73893;SDS011;62699;50.534;12.784;2023-06-24T17:12:45;10.13;;;3.97;;
73893;SDS011;62699;50.534;12.784;2023-06-24T17:17:45;14.65;;;5.38;;
73893;SDS011;62699;50.534;12.784;2023-06-24T17:22:45;8.57;;;4.25;;
73893;SDS011;62699;50.534;12.784;2023-06-24T17:27:46;6.70;;;3.70;;
73893;SDS011;62699;50.534;12.784;2023-06-24T17:32:46;6.57;;;3.90;;
73893;SDS011;62699;50.534;12.784;2023-06-24T17:37:46;7.82;;;4.43;;
73893;SDS011;62699;50.534;12.784;2023-06-24T17:42:46;7.97;;;4.80;;
73893;SDS011;62699;50.534;12.784;2023-06-24T17:47:47;9.30;;;5.57;;
73893;SDS011;62699;50.534;12.784;2023-06-24T17:52:47;7.28;;;4.63;;
73893;SDS011;62699;50.534;12.784;2023-06-24T17:57:47;7.15;;;4.00;;
73893;SDS011;62699;50.534;12.784;2023-06-24T18:02:47;6.43;;;3.63;;
73893;SDS011;62699;50.534;12.784;2023-06-24T18:07:48;6.55;;;4.15;;
73893;SDS011;62699;50.534;12.784;2023-06-24T18:12:49;6.22;;;3.53;;
73893;SDS011;62699;50.534;12.784;2023-06-24T18:17:49;8.20;;;4.10;;
73893;SDS011;62699;50.534;12.784;2023-06-24T18:22:51;6.75;;;4.05;;
73893;SDS011;62699;50.534;12.784;2023-06-24T18:27:51;7.03;;;4.03;;
73893;SDS011;62699;50.534;12.784;2023-06-24T18:32:52;6.38;;;3.83;;
73893;SDS011;62699;50.534;12.784;2023-06-24T18:37:53;7.28;;;3.97;;
73893;SDS011;62699;50.534;12.784;2023-06-24T18:42:54;6.47;;;3.78;;
73893;SDS011;62699;50.534;12.784;2023-06-24T18:47:54;8.70;;;4.22;;
73893;SDS011;62699;50.534;12.784;2023-06-24T18:52:56;7.63;;;3.60;;
73893;SDS011;62699;50.534;12.784;2023-06-24T18:57:56;7.30;;;4.30;;
73893;SDS011;62699;50.534;12.784;2023-06-24T19:02:56;8.05;;;4.65;;
73893;SDS011;62699;50.534;12.784;2023-06-24T19:07:57;7.47;;;4.35;;
73893;SDS011;62699;50.534;12.784;2023-06-24T19:12:57;8.85;;;4.63;;
73893;SDS011;62699;50.534;12.784;2023-06-24T19:17:57;8.43;;;4.55;;
73893;SDS011;62699;50.534;12.784;2023-06-24T19:22:59;8.48;;;5.10;;
73893;SDS011;62699;50.534;12.784;2023-06-24T19:27:59;8.85;;;5.00;;
73893;SDS011;62699;50.534;12.784;2023-06-24T19:32:59;8.27;;;4.65;;
73893;SDS011;62699;50.534;12.784;2023-06-24T19:38:01;8.18;;;4.85;;
73893;SDS011;62699;50.534;12.784;2023-06-24T19:43:01;8.63;;;5.30;;
73893;SDS011;62699;50.534;12.784;2023-06-24T19:48:01;9.90;;;5.68;;
73893;SDS011;62699;50.534;12.784;2023-06-24T19:53:02;9.23;;;5.40;;
73893;SDS011;62699;50.534;12.784;2023-06-24T19:58:02;8.00;;;4.95;;
73893;SDS011;62699;50.534;12.784;2023-06-24T20:03:02;8.63;;;5.28;;
73893;SDS011;62699;50.534;12.784;2023-06-24T20:08:05;8.20;;;5.32;;
73893;SDS011;62699;50.534;12.784;2023-06-24T20:13:05;10.30;;;5.97;;
73893;SDS011;62699;50.534;12.784;2023-06-24T20:18:05;9.43;;;5.50;;
73893;SDS011;62699;50.534;12.784;2023-06-24T20:23:07;9.50;;;5.53;;
73893;SDS011;62699;50.534;12.784;2023-06-24T20:28:07;10.32;;;5.80;;
73893;SDS011;62699;50.534;12.784;2023-06-24T20:33:07;12.85;;;6.22;;
73893;SDS011;62699;50.534;12.784;2023-06-24T20:38:08;13.93;;;9.05;;
73893;SDS011;62699;50.534;12.784;2023-06-24T20:43:08;12.15;;;6.70;;
73893;SDS011;62699;50.534;12.784;2023-06-24T20:48:08;10.38;;;6.03;;
73893;SDS011;62699;50.534;12.784;2023-06-24T20:53:08;9.95;;;5.63;;
73893;SDS011;62699;50.534;12.784;2023-06-24T20:58:09;10.88;;;6.10;;
73893;SDS011;62699;50.534;12.784;2023-06-24T21:03:09;11.30;;;6.40;;
73893;SDS011;62699;50.534;12.784;2023-06-24T21:08:10;11.75;;;6.70;;
73893;SDS011;62699;50.534;12.784;2023-06-24T21:13:10;14.18;;;6.40;;
73893;SDS011;62699;50.534;12.784;2023-06-24T21:18:10;9.63;;;6.43;;
73893;SDS011;62699;50.534;12.784;2023-06-24T21:23:11;9.85;;;6.20;;
73893;SDS011;62699;50.534;12.784;2023-06-24T21:28:12;11.27;;;6.30;;
73893;SDS011;62699;50.534;12.784;2023-06-24T21:33:12;9.57;;;5.93;;
73893;SDS011;62699;50.534;12.784;2023-06-24T21:38:12;12.03;;;7.07;;
73893;SDS011;62699;50.534;12.784;2023-06-24T21:43:13;10.73;;;6.38;;
73893;SDS011;62699;50.534;12.784;2023-06-24T21:48:13;11.13;;;6.10;;
73893;SDS011;62699;50.534;12.784;2023-06-24T21:53:14;9.77;;;5.93;;
73893;SDS011;62699;50.534;12.784;2023-06-24T21:58:16;10.25;;;6.18;;
73893;SDS011;62699;50.534;12.784;2023-06-24T22:03:16;11.45;;;6.30;;
73893;SDS011;62699;50.534;12.784;2023-06-24T22:08:17;10.65;;;6.05;;
73893;SDS011;62699;50.534;12.784;2023-06-24T22:13:18;11.38;;;5.93;;
73893;SDS011;62699;50.534;12.784;2023-06-24T22:18:19;10.27;;;6.03;;
73893;SDS011;62699;50.534;12.784;2023-06-24T22:23:19;11.30;;;6.25;;
73893;SDS011;62699;50.534;12.784;2023-06-24T22:28:21;9.82;;;6.07;;
73893;SDS011;62699;50.534;12.784;2023-06-24T22:33:21;12.75;;;6.60;;
73893;SDS011;62699;50.534;12.784;2023-06-24T22:38:21;9.63;;;5.90;;
73893;SDS011;62699;50.534;12.784;2023-06-24T22:43:23;9.57;;;5.90;;
73893;SDS011;62699;50.534;12.784;2023-06-24T22:48:23;12.02;;;6.22;;
73893;SDS011;62699;50.534;12.784;2023-06-24T22:53:24;11.60;;;6.72;;
73893;SDS011;62699;50.534;12.784;2023-06-24T22:58:25;10.32;;;5.78;;
73893;SDS011;62699;50.534;12.784;2023-06-24T23:03:26;10.18;;;5.75;;
73893;SDS011;62699;50.534;12.784;2023-06-24T23:08:27;9.13;;;5.47;;
73893;SDS011;62699;50.534;12.784;2023-06-24T23:13:27;9.43;;;5.70;;
73893;SDS011;62699;50.534;12.784;2023-06-24T23:18:28;10.30;;;5.63;;
73893;SDS011;62699;50.534;12.784;2023-06-24T23:23:30;10.65;;;5.90;;
73893;SDS011;62699;50.534;12.784;2023-06-24T23:28:37;9.63;;;5.68;;
73893;SDS011;62699;50.534;12.784;2023-06-24T23:33:39;9.98;;;5.43;;
73893;SDS011;62699;50.534;12.784;2023-06-24T23:38:41;10.55;;;5.72;;
73893;SDS011;62699;50.534;12.784;2023-06-24T23:43:42;12.30;;;6.20;;
73893;SDS011;62699;50.534;12.784;2023-06-24T23:48:42;9.25;;;5.80;;
73893;SDS011;62699;50.534;12.784;2023-06-24T23:53:44;9.73;;;5.85;;
73893;SDS011;62699;50.534;12.784;2023-06-24T23:58:44;9.95;;;6.20;;
